Time;durP1;ratioP1;P1;durP2;ratioP2;P2;SDS_P1;SDS_P2;PMS_P1;PMS_P2;Temp;Humidity;BMP_temperature;BMP_pressure;BME280_temperature;BME280_humidity;BME280_pressure;Samples;Min_cycle;Max_cycle;Signal;HPM_P1;HPM_P2
2023/06/28 00:01:09;;;;;;;;;;;17.00;86.90;;;;;;5035231;28;19996;-80
2023/06/28 00:03:35;;;;;;;;;;;17.00;87.00;;;;;;5034622;28;19967;-80
2023/06/28 00:06:00;;;;;;;;;;;17.00;86.90;;;;;;5045427;28;19905;-80
2023/06/28 00:08:26;;;;;;;;;;;16.90;86.70;;;;;;5052989;28;19917;-81
2023/06/28 00:10:55;;;;;;;;;;;16.90;86.70;;;;;;5035230;28;19913;-80
2023/06/28 00:13:21;;;;;;;;;;;16.90;86.80;;;;;;5016109;28;19956;-82
2023/06/28 00:15:46;;;;;;;;;;;16.90;86.80;;;;;;5033957;28;19909;-82
2023/06/28 00:18:12;;;;;;;;;;;16.90;86.60;;;;;;5034192;28;19916;-82
2023/06/28 00:20:40;;;;;;;;;;;17.00;86.60;;;;;;5015718;28;19943;-80
2023/06/28 00:23:06;;;;;;;;;;;16.90;86.30;;;;;;5036041;28;20417;-80
2023/06/28 00:25:32;;;;;;;;;;;16.70;86.50;;;;;;5027754;28;19909;-81
2023/06/28 00:28:00;;;;;;;;;;;16.60;87.00;;;;;;5045012;28;20054;-81
2023/06/28 00:30:26;;;;;;;;;;;16.40;88.10;;;;;;5041734;28;20047;-81
2023/06/28 00:32:52;;;;;;;;;;;16.10;89.20;;;;;;5034634;28;19949;-82
2023/06/28 00:35:18;;;;;;;;;;;;;;;;;;5042387;28;20353;-81
2023/06/28 00:37:44;;;;;;;;;;;;;;;;;;5036820;28;19913;-81
2023/06/28 00:40:10;;;;;;;;;;;;;;;;;;5034110;28;20012;-81
2023/06/28 00:42:36;;;;;;;;;;;;;;;;;;5033737;28;19927;-82
2023/06/28 00:45:02;;;;;;;;;;;;;;;;;;5034027;28;19912;-80
2023/06/28 00:47:28;;;;;;;;;;;;;;;;;;5032961;28;19913;-80
2023/06/28 00:49:54;;;;;;;;;;;;;;;;;;5033635;28;19955;-82
2023/06/28 00:52:20;;;;;;;;;;;;;;;;;;5015892;28;19905;-81
2023/06/28 00:54:45;;;;;;;;;;;;;;;;;;5033791;28;19950;-81
2023/06/28 00:57:11;;;;;;;;;;;;;;;;;;5032358;28;19905;-82
2023/06/28 00:59:37;;;;;;;;;;;;;;;;;;5016944;28;19998;-80
2023/06/28 01:02:03;;;;;;;;;;;;;;;;;;5037337;28;19905;-82
2023/06/28 01:04:29;;;;;;;;;;;;;;;;;;5018203;28;20003;-81
2023/06/28 01:06:59;;;;;;;;;;;;;;;;;;5036106;28;19913;-80
2023/06/28 01:09:25;;;;;;;;;;;;;;;;;;5035710;28;19951;-81
2023/06/28 01:11:51;;;;;;;;;;;;;;;;;;5007839;28;19906;-80
2023/06/28 01:14:17;;;;;;;;;;;;;;;;;;5018111;28;19909;-81
2023/06/28 01:16:43;;;;;;;;;;;;;;;;;;5032781;28;20008;-80
2023/06/28 01:19:09;;;;;;;;;;;;;;;;;;5034129;28;19944;-81
2023/06/28 01:21:35;;;;;;;;;;;;;;;;;;5023454;28;19984;-81
2023/06/28 01:24:01;;;;;;;;;;;;;;;;;;5044501;28;19968;-79
2023/06/28 01:26:27;;;;;;;;;;;;;;;;;;5045598;28;19948;-81
2023/06/28 01:28:52;;;;;;;;;;;;;;;;;;5046595;28;20058;-81
2023/06/28 01:31:18;;;;;;;;;;;;;;;;;;5038469;28;19916;-80
2023/06/28 01:33:46;;;;;;;;;;;;;;;;;;5018280;28;20298;-81
2023/06/28 01:36:12;;;;;;;;;;;;;;;;;;5035284;28;19951;-81
2023/06/28 01:38:38;;;;;;;;;;;;;;;;;;5033237;28;20394;-81
2023/06/28 01:41:04;;;;;;;;;;;;;;;;;;5028535;28;20354;-79
2023/06/28 01:43:30;;;;;;;;;;;;;;;;;;5032546;28;19912;-81
2023/06/28 01:45:56;;;;;;;;;;;;;;;;;;5032746;28;20306;-79
2023/06/28 01:48:22;;;;;;;;;;;;;;;;;;5032553;28;20290;-80
2023/06/28 01:50:48;;;;;;;;;;;;;;;;;;5014912;28;19995;-81
2023/06/28 01:53:14;;;;;;;;;;;;;;;;;;5032524;28;19916;-80
2023/06/28 01:55:40;;;;;;;;;;;;;;;;;;5032518;28;19905;-80
2023/06/28 01:58:06;;;;;;;;;;;;;;;;;;5032935;28;19905;-79
2023/06/28 02:00:31;;;;;;;;;;;;;;;;;;5032731;28;20363;-79
2023/06/28 02:02:57;;;;;;;;;;;;;;;;;;5032528;28;19905;-80
2023/06/28 02:05:23;;;;;;;;;;;;;;;;;;5032083;28;19928;-80
2023/06/28 02:07:49;;;;;;;;;;;;;;;;;;5014897;28;19954;-80
2023/06/28 02:10:15;;;;;;;;;;;;;;;;;;5035221;28;19893;-81
2023/06/28 02:12:41;;;;;;;;;;;;;;;;;;5056951;28;19999;-79
2023/06/28 02:15:08;;;;;;;;;;;;;;;;;;5038899;28;19905;-82
2023/06/28 02:17:35;;;;;;;;;;;;;;;;;;5037000;28;19916;-80
2023/06/28 02:20:03;;;;;;;;;;;;;;;;;;5025188;28;19913;-81
2023/06/28 02:22:29;;;;;;;;;;;;;;;;;;5046077;28;19909;-79
2023/06/28 02:24:55;;;;;;;;;;;;;;;;;;5016995;28;19959;-81
2023/06/28 02:27:21;;;;;;;;;;;;;;;;;;5034352;28;19971;-80
2023/06/28 02:29:47;;;;;;;;;;;;;;;;;;5036948;28;20011;-79
2023/06/28 02:32:13;;;;;;;;;;;;;;;;;;5029400;28;19909;-80
2023/06/28 02:34:39;;;;;;;;;;;;;;;;;;5036439;28;20358;-80
2023/06/28 02:37:05;;;;;;;;;;;;;;;;;;5036475;28;19905;-80
2023/06/28 02:39:31;;;;;;;;;;;;;;;;;;5035919;28;19959;-80
2023/06/28 02:41:57;;;;;;;;;;;;;;;;;;5037422;28;19905;-82
2023/06/28 02:44:23;;;;;;;;;;;;;;;;;;5036107;28;20362;-80
2023/06/28 02:46:49;;;;;;;;;;;;;;;;;;5035674;28;19915;-79
2023/06/28 02:49:15;;;;;;;;;;;;;;;;;;5035792;28;19912;-80
2023/06/28 02:51:41;;;;;;;;;;;;;;;;;;5026281;28;20314;-80
2023/06/28 02:54:07;;;;;;;;;;;;;;;;;;5036534;28;19909;-79
2023/06/28 02:56:33;;;;;;;;;;;15.90;90.40;;;;;;5035339;28;20007;-80
2023/06/28 02:58:59;;;;;;;;;;;15.30;96.60;;;;;;5035977;28;19994;-79
2023/06/28 03:01:25;;;;;;;;;;;15.20;96.80;;;;;;5023474;28;19967;-79
2023/06/28 03:03:51;;;;;;;;;;;15.10;97.10;;;;;;5035676;28;19905;-79
2023/06/28 03:06:17;;;;;;;;;;;15.10;97.30;;;;;;5035200;28;19917;-80
2023/06/28 03:08:43;;;;;;;;;;;15.10;97.50;;;;;;5035521;28;19917;-78
2023/06/28 03:11:09;;;;;;;;;;;15.20;97.60;;;;;;5035802;28;19913;-79
2023/06/28 03:13:34;;;;;;;;;;;15.30;97.60;;;;;;5036650;28;19912;-79
2023/06/28 03:16:00;;;;;;;;;;;15.40;97.60;;;;;;5031134;28;19924;-78
2023/06/28 03:18:26;;;;;;;;;;;15.50;97.50;;;;;;5035171;28;20000;-80
2023/06/28 03:20:52;;;;;;;;;;;15.60;97.20;;;;;;5035254;28;19909;-81
2023/06/28 03:23:17;;;;;;;;;;;15.50;97.10;;;;;;5031638;28;20271;-80
2023/06/28 03:25:43;;;;;;;;;;;15.50;97.00;;;;;;5039053;28;19984;-79
2023/06/28 03:28:09;;;;;;;;;;;15.60;97.10;;;;;;5017666;28;19913;-78
2023/06/28 03:30:35;;;;;;;;;;;15.70;97.20;;;;;;5017143;28;19905;-78
2023/06/28 03:33:01;;;;;;;;;;;15.80;97.10;;;;;;5035278;28;19912;-79
2023/06/28 03:35:26;;;;;;;;;;;15.90;96.80;;;;;;5035267;28;19955;-79
2023/06/28 03:37:53;;;;;;;;;;;16.00;96.60;;;;;;5034683;28;19916;-80
2023/06/28 03:40:18;;;;;;;;;;;16.10;96.50;;;;;;5030051;28;19910;-78
2023/06/28 03:42:44;;;;;;;;;;;16.10;95.90;;;;;;5031954;28;19905;-80
2023/06/28 03:45:10;;;;;;;;;;;16.10;96.00;;;;;;5016758;28;19917;-78
2023/06/28 03:47:35;;;;;;;;;;;16.20;96.00;;;;;;5016645;28;19919;-79
2023/06/28 03:50:01;;;;;;;;;;;16.40;95.70;;;;;;5016642;28;19905;-80
2023/06/28 03:52:27;;;;;;;;;;;16.40;95.20;;;;;;5034602;28;19992;-79
2023/06/28 03:54:53;;;;;;;;;;;16.40;95.10;;;;;;5018606;28;19908;-79
2023/06/28 03:57:21;;;;;;;;;;;16.50;94.90;;;;;;5030345;28;19913;-80
2023/06/28 03:59:46;;;;;;;;;;;16.60;94.80;;;;;;5034177;28;19909;-80
2023/06/28 04:02:12;;;;;;;;;;;16.70;94.60;;;;;;5034285;28;19909;-80
2023/06/28 04:04:38;;;;;;;;;;;16.70;94.30;;;;;;5027133;28;20017;-78
2023/06/28 04:07:04;;;;;;;;;;;16.70;94.10;;;;;;5041804;28;19986;-79
2023/06/28 04:09:29;;;;;;;;;;;16.70;93.60;;;;;;5040703;28;20351;-78
2023/06/28 04:11:55;;;;;;;;;;;16.60;93.60;;;;;;5035463;28;19967;-79
2023/06/28 04:14:22;;;;;;;;;;;16.60;93.60;;;;;;5041222;28;19905;-79
2023/06/28 04:16:47;;;;;;;;;;;16.70;93.50;;;;;;5055138;28;19920;-79
2023/06/28 04:19:13;;;;;;;;;;;16.70;93.40;;;;;;5044041;28;19909;-79
2023/06/28 04:21:38;;;;;;;;;;;16.80;93.40;;;;;;5035881;28;19916;-81
2023/06/28 04:24:04;;;;;;;;;;;16.90;93.30;;;;;;5036380;28;19912;-80
2023/06/28 04:26:30;;;;;;;;;;;16.90;93.10;;;;;;5036201;28;19912;-80
2023/06/28 04:28:55;;;;;;;;;;;17.00;93.00;;;;;;5037584;28;19958;-80
2023/06/28 04:31:21;;;;;;;;;;;17.10;93.00;;;;;;5034914;28;19916;-79
2023/06/28 04:33:47;;;;;;;;;;;17.20;92.90;;;;;;5015539;28;19909;-78
2023/06/28 04:36:13;;;;;;;;;;;17.40;92.90;;;;;;5033632;28;19909;-79
2023/06/28 04:38:39;;;;;;;;;;;17.60;92.80;;;;;;5033771;28;20281;-80
2023/06/28 04:41:05;;;;;;;;;;;17.70;92.70;;;;;;5033703;28;20291;-79
2023/06/28 04:43:38;;;;;;;;;;;17.90;91.90;;;;;;5016516;28;20364;-78
2023/06/28 04:46:04;;;;;;;;;;;17.90;91.60;;;;;;5016419;28;19913;-80
2023/06/28 04:48:29;;;;;;;;;;;18.10;91.60;;;;;;5033519;28;19913;-80
2023/06/28 04:50:55;;;;;;;;;;;18.40;91.50;;;;;;5034628;28;20278;-79
2023/06/28 04:53:21;;;;;;;;;;;18.60;91.20;;;;;;5035014;28;19905;-80
2023/06/28 04:55:54;;;;;;;;;;;18.90;90.30;;;;;;5085644;27;2153247;-79
2023/06/28 04:58:19;;;;;;;;;;;18.90;88.90;;;;;;5151964;27;19954;-79
2023/06/28 05:00:45;;;;;;;;;;;19.00;87.70;;;;;;5121864;28;19930;-80
2023/06/28 05:03:15;;;;;;;;;;;19.00;87.20;;;;;;5149353;27;19946;-79
2023/06/28 05:05:41;;;;;;;;;;;19.10;86.80;;;;;;5151962;27;19908;-79
2023/06/28 05:08:09;;;;;;;;;;;19.20;86.10;;;;;;5144792;27;20352;-80
2023/06/28 05:10:36;;;;;;;;;;;19.20;86.00;;;;;;5152336;27;20275;-81
2023/06/28 05:13:02;;;;;;;;;;;19.30;85.70;;;;;;5136738;27;20002;-80
2023/06/28 05:15:32;;;;;;;;;;;19.50;86.00;;;;;;5130976;27;19973;-80
2023/06/28 05:17:58;;;;;;;;;;;19.70;85.40;;;;;;5126728;27;19911;-79
2023/06/28 05:20:24;;;;;;;;;;;20.10;84.70;;;;;;5151781;27;19915;-79
2023/06/28 05:22:49;;;;;;;;;;;20.50;84.10;;;;;;5132957;27;19915;-79
2023/06/28 05:25:18;;;;;;;;;;;20.70;81.20;;;;;;5151180;27;19908;-80
2023/06/28 05:27:43;;;;;;;;;;;20.90;80.90;;;;;;5150994;27;20332;-80
2023/06/28 05:30:09;;;;;;;;;;;20.90;78.60;;;;;;5150767;27;19954;-80
2023/06/28 05:32:35;;;;;;;;;;;20.80;77.20;;;;;;5150631;27;19943;-81
2023/06/28 05:35:05;;;;;;;;;;;20.60;77.90;;;;;;5150712;27;19919;-80
2023/06/28 05:37:30;;;;;;;;;;;20.90;78.20;;;;;;5151078;27;19918;-78
2023/06/28 05:39:56;;;;;;;;;;;21.60;77.60;;;;;;5150987;27;19907;-80
2023/06/28 05:42:22;;;;;;;;;;;21.90;75.00;;;;;;5121975;27;19911;-81
2023/06/28 05:44:48;;;;;;;;;;;21.80;74.70;;;;;;5128901;27;20527;-81
2023/06/28 05:47:13;;;;;;;;;;;21.70;75.40;;;;;;5123729;28;20031;-79
2023/06/28 05:49:41;;;;;;;;;;;21.90;75.70;;;;;;5138118;27;19908;-80
2023/06/28 05:52:07;;;;;;;;;;;22.10;75.00;;;;;;5151663;27;20367;-79
2023/06/28 05:54:32;;;;;;;;;;;22.40;74.50;;;;;;5130595;27;19920;-80
2023/06/28 05:56:58;;;;;;;;;;;22.30;72.40;;;;;;5126833;27;19950;-81
2023/06/28 05:59:24;;;;;;;;;;;22.10;72.40;;;;;;5135217;27;19918;-82
2023/06/28 06:01:50;;;;;;;;;;;22.00;73.10;;;;;;5142634;27;19908;-81
2023/06/28 06:04:15;;;;;;;;;;;22.10;73.30;;;;;;5146447;27;19907;-81
2023/06/28 06:06:41;;;;;;;;;;;22.30;73.40;;;;;;5125263;27;20355;-80
2023/06/28 06:09:06;;;;;;;;;;;22.40;73.00;;;;;;5115907;28;19939;-81
2023/06/28 06:11:32;;;;;;;;;;;22.40;72.40;;;;;;5103339;28;20316;-81
2023/06/28 06:13:58;;;;;;;;;;;22.50;72.30;;;;;;5114254;28;20278;-81
2023/06/28 06:16:23;;;;;;;;;;;22.40;71.80;;;;;;5083358;28;20285;-80
2023/06/28 06:18:49;;;;;;;;;;;22.40;71.20;;;;;;5120962;28;19907;-80
2023/06/28 06:21:15;;;;;;;;;;;22.30;71.50;;;;;;5112510;28;20384;-80
2023/06/28 06:23:40;;;;;;;;;;;22.30;71.50;;;;;;5118453;27;20387;-80
2023/06/28 06:26:06;;;;;;;;;;;22.40;71.70;;;;;;5095804;28;19954;-81
2023/06/28 06:28:31;;;;;;;;;;;22.30;70.90;;;;;;5077866;28;19908;-81
2023/06/28 06:30:57;;;;;;;;;;;22.40;71.40;;;;;;5097543;28;19912;-79
2023/06/28 06:33:23;;;;;;;;;;;22.40;71.10;;;;;;5106653;28;19912;-82
2023/06/28 06:35:49;;;;;;;;;;;22.40;70.60;;;;;;5098719;28;19945;-81
2023/06/28 06:38:15;;;;;;;;;;;22.40;70.00;;;;;;5095108;28;19908;-80
2023/06/28 06:40:40;;;;;;;;;;;22.30;70.40;;;;;;5117834;27;19981;-80
2023/06/28 06:43:06;;;;;;;;;;;22.30;70.40;;;;;;5090759;28;19953;-81
2023/06/28 06:45:32;;;;;;;;;;;22.30;70.40;;;;;;5094809;28;20326;-79
2023/06/28 06:47:57;;;;;;;;;;;22.50;70.40;;;;;;5094847;28;20459;-78
2023/06/28 06:50:23;;;;;;;;;;;22.50;69.70;;;;;;5094438;28;20304;-80
2023/06/28 06:52:50;;;;;;;;;;;22.40;70.00;;;;;;5094567;28;19912;-80
2023/06/28 06:55:16;;;;;;;;;;;22.40;69.80;;;;;;5108608;27;20376;-81
2023/06/28 06:57:41;;;;;;;;;;;22.40;69.70;;;;;;5106108;27;20046;-80
2023/06/28 07:00:08;;;;;;;;;;;22.40;69.80;;;;;;5108227;28;20297;-79
2023/06/28 07:02:34;;;;;;;;;;;22.40;69.80;;;;;;5089275;28;19919;-80
2023/06/28 07:05:00;;;;;;;;;;;22.40;69.80;;;;;;5095497;28;20297;-80
2023/06/28 07:07:25;;;;;;;;;;;22.30;69.70;;;;;;5094485;28;20260;-80
2023/06/28 07:09:51;;;;;;;;;;;22.30;69.50;;;;;;5109084;28;19914;-79
2023/06/28 07:12:17;;;;;;;;;;;22.30;69.80;;;;;;5110158;27;19912;-81
2023/06/28 07:14:42;;;;;;;;;;;22.50;69.50;;;;;;5104894;28;20348;-81
2023/06/28 07:17:08;;;;;;;;;;;22.60;69.50;;;;;;5096671;28;19962;-79
2023/06/28 07:19:35;;;;;;;;;;;23.10;69.40;;;;;;5094079;28;19912;-80
2023/06/28 07:22:01;;;;;;;;;;;23.60;68.00;;;;;;5094228;28;19956;-82
2023/06/28 07:24:27;;;;;;;;;;;;;;;;;;5075755;28;19963;-80
2023/06/28 07:26:52;;;;;;;;;;;24.50;66.90;;;;;;5094489;28;19908;-79
2023/06/28 07:29:18;;;;;;;;;;;26.70;59.80;;;;;;5126527;27;19990;-80
2023/06/28 07:31:44;;;;;;;;;;;26.80;59.20;;;;;;5114442;28;19919;-81
2023/06/28 07:34:09;;;;;;;;;;;26.80;59.10;;;;;;5097582;28;19965;-82
2023/06/28 07:36:35;;;;;;;;;;;26.90;58.20;;;;;;5094674;28;19908;-81
2023/06/28 07:39:01;;;;;;;;;;;27.80;56.50;;;;;;5104124;28;19908;-81
2023/06/28 07:41:26;;;;;;;;;;;28.50;56.10;;;;;;5097816;28;19953;-82
2023/06/28 07:43:52;;;;;;;;;;;29.50;52.70;;;;;;5115103;27;19946;-82
2023/06/28 07:46:17;;;;;;;;;;;32.20;47.60;;;;;;5078851;28;19920;-82
2023/06/28 07:48:43;;;;;;;;;;;32.20;48.20;;;;;;5093860;28;19985;-80
2023/06/28 07:51:09;;;;;;;;;;;;;;;;;;5114060;27;19937;-80
2023/06/28 07:53:35;;;;;;;;;;;;;;;;;;5093598;28;19908;-81
2023/06/28 07:56:01;;;;;;;;;;;;;;;;;;5075416;28;19920;-80
2023/06/28 07:58:27;;;;;;;;;;;;;;;;;;5093539;28;20381;-80
2023/06/28 08:00:53;;;;;;;;;;;;;;;;;;5093715;28;19908;-81
2023/06/28 08:03:19;;;;;;;;;;;;;;;;;;5107747;28;20048;-81
2023/06/28 08:05:45;;;;;;;;;;;;;;;;;;5100644;28;19924;-80
2023/06/28 08:08:11;;;;;;;;;;;;;;;;;;5093010;28;19961;-81
2023/06/28 08:10:37;;;;;;;;;;;;;;;;;;5108700;28;19915;-82
2023/06/28 08:13:03;;;;;;;;;;;34.60;43.90;;;;;;5100667;28;19908;-81
2023/06/28 08:15:28;;;;;;;;;;;35.40;42.70;;;;;;5097492;28;19949;-81
2023/06/28 08:17:54;;;;;;;;;;;36.90;39.50;;;;;;5102337;28;19908;-81
2023/06/28 08:20:20;;;;;;;;;;;37.40;37.80;;;;;;5098839;28;19908;-81
2023/06/28 08:22:45;;;;;;;;;;;37.20;37.30;;;;;;5103912;28;19912;-80
2023/06/28 08:25:11;;;;;;;;;;;35.50;36.00;;;;;;5105034;28;19916;-79
2023/06/28 08:27:37;;;;;;;;;;;34.00;37.70;;;;;;5094507;28;20003;-80
2023/06/28 08:30:03;;;;;;;;;;;32.50;38.40;;;;;;5093216;28;19973;-80
2023/06/28 08:32:28;;;;;;;;;;;30.90;40.10;;;;;;5093882;28;19916;-82
2023/06/28 08:34:54;;;;;;;;;;;;;;;;;;5094271;28;19919;-81
2023/06/28 08:37:20;;;;;;;;;;;;;;;;;;5095779;28;19908;-82
2023/06/28 08:39:46;;;;;;;;;;;29.50;41.60;;;;;;5092015;28;19931;-81
2023/06/28 08:42:13;;;;;;;;;;;27.10;46.20;;;;;;5093521;28;19908;-81
2023/06/28 08:44:38;;;;;;;;;;;26.50;47.00;;;;;;5074902;28;19982;-80
2023/06/28 08:47:05;;;;;;;;;;;26.20;47.60;;;;;;5085955;28;19912;-80
2023/06/28 08:49:31;;;;;;;;;;;25.80;47.30;;;;;;5095544;28;19908;-80
2023/06/28 08:51:57;;;;;;;;;;;;;;;;;;5092437;28;19915;-82
2023/06/28 08:54:23;;;;;;;;;;;;;;;;;;5092563;28;19939;-81
2023/06/28 08:56:49;;;;;;;;;;;;;;;;;;5109950;28;19920;-80
2023/06/28 08:59:15;;;;;;;;;;;25.60;47.80;;;;;;5106408;28;19908;-81
2023/06/28 09:01:41;;;;;;;;;;;25.10;48.40;;;;;;5098699;28;19952;-82
2023/06/28 09:04:06;;;;;;;;;;;24.80;49.30;;;;;;5101490;28;20018;-81
2023/06/28 09:06:33;;;;;;;;;;;24.80;49.80;;;;;;5107191;28;19908;-82
2023/06/28 09:08:59;;;;;;;;;;;24.70;50.30;;;;;;5101746;28;19908;-82
2023/06/28 09:11:26;;;;;;;;;;;24.60;50.80;;;;;;5110615;28;20356;-79
2023/06/28 09:13:52;;;;;;;;;;;24.70;50.30;;;;;;5084759;28;19908;-81
2023/06/28 09:16:18;;;;;;;;;;;24.70;50.10;;;;;;5095143;28;19929;-81
2023/06/28 09:18:43;;;;;;;;;;;24.60;50.10;;;;;;5091249;28;20020;-82
2023/06/28 09:21:09;;;;;;;;;;;24.60;50.10;;;;;;5098703;28;19962;-81
2023/06/28 09:23:35;;;;;;;;;;;24.60;50.30;;;;;;5096566;28;19915;-81
2023/06/28 09:26:00;;;;;;;;;;;24.60;50.50;;;;;;5101351;28;19912;-81
2023/06/28 09:28:33;;;;;;;;;;;24.80;50.40;;;;;;5111647;28;19912;-81
2023/06/28 09:30:59;;;;;;;;;;;25.00;50.30;;;;;;5093948;28;19916;-80
2023/06/28 09:33:25;;;;;;;;;;;25.20;50.10;;;;;;5092137;28;19908;-81
2023/06/28 09:35:58;;;;;;;;;;;25.30;49.90;;;;;;5092259;28;19908;-81
2023/06/28 09:38:24;;;;;;;;;;;25.40;49.30;;;;;;5102199;28;19919;-82
2023/06/28 09:40:54;;;;;;;;;;;25.20;48.90;;;;;;5097615;28;20060;-80
2023/06/28 09:43:20;;;;;;;;;;;25.20;48.90;;;;;;5104696;28;19960;-80
2023/06/28 09:45:47;;;;;;;;;;;25.20;48.60;;;;;;5121513;27;20016;-81
2023/06/28 09:48:12;;;;;;;;;;;25.10;48.50;;;;;;5096701;28;19915;-80
2023/06/28 09:50:41;;;;;;;;;;;24.90;48.80;;;;;;5109416;28;19911;-81
2023/06/28 09:53:08;;;;;;;;;;;24.80;49.10;;;;;;5099759;28;20403;-80
2023/06/28 09:55:34;;;;;;;;;;;;;;;;;;5099917;28;20383;-79
2023/06/28 09:58:00;;;;;;;;;;;;;;;;;;5096530;28;19912;-82
2023/06/28 10:00:25;;;;;;;;;;;;;;;;;;5095901;28;20011;-81
2023/06/28 10:02:52;;;;;;;;;;;;;;;;;;5097847;27;19912;-81
2023/06/28 10:05:18;;;;;;;;;;;;;;;;;;5096153;28;19978;-82
2023/06/28 10:07:44;;;;;;;;;;;;;;;;;;5091503;28;19918;-80
2023/06/28 10:10:10;;;;;;;;;;;;;;;;;;5078003;28;19908;-81
2023/06/28 10:12:35;;;;;;;;;;;;;;;;;;5102988;28;19912;-81
2023/06/28 10:15:02;;;;;;;;;;;;;;;;;;5102326;28;19912;-80
2023/06/28 10:17:35;;;;;;;;;;;;;;;;;;5115264;28;19932;-81
2023/06/28 10:20:02;;;;;;;;;;;;;;;;;;5111397;27;19912;-82
2023/06/28 10:22:28;;;;;;;;;;;;;;;;;;5110336;28;20053;-81
2023/06/28 10:24:54;;;;;;;;;;;;;;;;;;5097526;28;20052;-81
2023/06/28 10:27:20;;;;;;;;;;;24.60;49.50;;;;;;5100054;28;20323;-80
2023/06/28 10:29:49;;;;;;;;;;;22.80;54.40;;;;;;5111749;28;19912;-80
2023/06/28 10:32:15;;;;;;;;;;;22.70;53.80;;;;;;5102062;28;19943;-80
2023/06/28 10:34:42;;;;;;;;;;;22.60;54.00;;;;;;5080633;27;20285;-82
2023/06/28 10:37:08;;;;;;;;;;;22.70;54.00;;;;;;5109664;27;19916;-82
2023/06/28 10:39:38;;;;;;;;;;;22.80;54.00;;;;;;5095098;28;19935;-80
2023/06/28 10:42:04;;;;;;;;;;;22.90;54.10;;;;;;5095617;28;20281;-80
2023/06/28 10:44:30;;;;;;;;;;;23.00;54.00;;;;;;5095439;28;19934;-81
2023/06/28 10:47:08;;;;;;;;;;;23.00;53.80;;;;;;5087887;28;20372;-82
2023/06/28 10:49:34;;;;;;;;;;;23.00;53.90;;;;;;5111777;28;20266;-79
2023/06/28 10:52:00;;;;;;;;;;;23.10;53.90;;;;;;5094177;28;19908;-79
2023/06/28 10:54:25;;;;;;;;;;;23.30;54.10;;;;;;5096630;28;19982;-80
2023/06/28 10:56:51;;;;;;;;;;;23.40;54.10;;;;;;5096813;28;20000;-81
2023/06/28 10:59:18;;;;;;;;;;;23.50;54.00;;;;;;5099916;28;19908;-81
2023/06/28 11:01:46;;;;;;;;;;;23.60;53.80;;;;;;5105406;28;19908;-81
2023/06/28 11:04:13;;;;;;;;;;;23.80;53.60;;;;;;5085801;28;19916;-80
2023/06/28 11:06:39;;;;;;;;;;;24.00;53.40;;;;;;5110485;28;19915;-81
2023/06/28 11:09:17;;;;;;;;;;;24.20;53.00;;;;;;5096138;28;20341;-81
2023/06/28 11:11:56;;;;;;;;;;;24.40;53.00;;;;;;5109099;27;19912;-80
2023/06/28 11:14:23;;;;;;;;;;;24.80;52.80;;;;;;5095879;28;19914;-80
2023/06/28 11:16:49;;;;;;;;;;;25.20;52.20;;;;;;5095408;28;19920;-82
2023/06/28 11:19:19;;;;;;;;;;;25.40;51.20;;;;;;5094972;28;20277;-82
2023/06/28 11:22:03;;;;;;;;;;;25.40;51.00;;;;;;5107430;28;19922;-79
2023/06/28 11:24:28;;;;;;;;;;;25.50;51.30;;;;;;5108353;28;20419;-81
2023/06/28 11:26:54;;;;;;;;;;;25.40;49.00;;;;;;5107665;28;19908;-81
2023/06/28 11:29:20;;;;;;;;;;;25.20;49.80;;;;;;5106008;28;19912;-80
2023/06/28 11:31:50;;;;;;;;;;;25.20;50.20;;;;;;5112206;27;20432;-81
2023/06/28 11:34:16;;;;;;;;;;;25.10;50.20;;;;;;5109877;28;20361;-81
2023/06/28 11:36:43;;;;;;;;;;;25.00;50.40;;;;;;5133838;27;19919;-81
2023/06/28 11:39:09;;;;;;;;;;;24.90;50.70;;;;;;5120120;27;20003;-80
2023/06/28 11:41:35;;;;;;;;;;;24.80;50.20;;;;;;5124451;27;19915;-81
2023/06/28 11:44:02;;;;;;;;;;;24.80;49.90;;;;;;5123192;27;19920;-81
2023/06/28 11:46:27;;;;;;;;;;;24.80;50.10;;;;;;5097656;27;19916;-82
2023/06/28 11:48:53;;;;;;;;;;;24.80;49.90;;;;;;5122500;27;20593;-82
2023/06/28 11:51:24;;;;;;;;;;;24.80;50.00;;;;;;5115252;28;19919;-81
2023/06/28 11:53:50;;;;;;;;;;;24.70;50.20;;;;;;5125668;27;20318;-82
2023/06/28 11:56:15;;;;;;;;;;;24.60;50.20;;;;;;5127511;27;19920;-81
2023/06/28 11:58:41;;;;;;;;;;;24.60;50.60;;;;;;5128457;27;19951;-81
2023/06/28 12:01:18;;;;;;;;;;;24.60;50.70;;;;;;5127853;27;20301;-81
2023/06/28 12:03:43;;;;;;;;;;;24.60;50.80;;;;;;5108661;27;19908;-81
2023/06/28 12:06:10;;;;;;;;;;;24.50;50.90;;;;;;5126105;27;20013;-81
2023/06/28 12:08:36;;;;;;;;;;;24.40;51.00;;;;;;5127350;27;19914;-80
2023/06/28 12:11:07;;;;;;;;;;;24.30;51.70;;;;;;5113170;27;19908;-81
2023/06/28 12:13:33;;;;;;;;;;;24.10;53.40;;;;;;5094043;28;20369;-81
2023/06/28 12:16:10;;;;;;;;;;;23.60;54.90;;;;;;5088842;28;19919;-83
2023/06/28 12:18:56;;;;;;;;;;;23.50;55.70;;;;;;5075928;28;19919;-81
2023/06/28 12:21:22;;;;;;;;;;;23.40;56.30;;;;;;5104573;28;20360;-80
2023/06/28 12:23:48;;;;;;;;;;;23.40;57.40;;;;;;5111543;27;20325;-79
2023/06/28 12:26:14;;;;;;;;;;;23.50;57.60;;;;;;5101541;28;19912;-80
2023/06/28 12:28:39;;;;;;;;;;;23.60;57.30;;;;;;5083937;28;19915;-81
2023/06/28 12:31:08;;;;;;;;;;;23.80;56.70;;;;;;5092852;28;19915;-81
2023/06/28 12:33:35;;;;;;;;;;;23.90;56.90;;;;;;5114497;28;19932;-80
2023/06/28 12:36:00;;;;;;;;;;;23.90;58.00;;;;;;5080709;28;20332;-80
2023/06/28 12:38:26;;;;;;;;;;;23.80;58.40;;;;;;5095507;28;19945;-81
2023/06/28 12:40:52;;;;;;;;;;;23.70;58.80;;;;;;5111893;28;19930;-80
2023/06/28 12:43:18;;;;;;;;;;;23.70;59.10;;;;;;5093326;28;19912;-81
2023/06/28 12:45:45;;;;;;;;;;;23.90;59.20;;;;;;5107302;28;19926;-81
2023/06/28 12:48:14;;;;;;;;;;;24.10;58.90;;;;;;5093191;28;19961;-82
2023/06/28 12:50:40;;;;;;;;;;;24.20;58.40;;;;;;5098875;28;20048;-79
2023/06/28 12:53:05;;;;;;;;;;;24.00;58.70;;;;;;5094039;28;20365;-81
2023/06/28 12:55:31;;;;;;;;;;;23.80;59.20;;;;;;5104814;28;19927;-80
2023/06/28 12:57:57;;;;;;;;;;;23.90;59.20;;;;;;5090445;28;19908;-80
2023/06/28 13:00:22;;;;;;;;;;;24.00;58.90;;;;;;5094959;28;19915;-81
2023/06/28 13:02:48;;;;;;;;;;;24.00;58.80;;;;;;5090618;28;19907;-81
2023/06/28 13:05:14;;;;;;;;;;;24.10;58.70;;;;;;5074905;28;19920;-82
2023/06/28 13:07:39;;;;;;;;;;;24.20;58.50;;;;;;5093138;28;19946;-80
2023/06/28 13:10:05;;;;;;;;;;;24.20;58.40;;;;;;5104801;28;20010;-80
2023/06/28 13:12:31;;;;;;;;;;;24.20;58.40;;;;;;5099616;28;20213;-81
2023/06/28 13:14:56;;;;;;;;;;;24.20;58.40;;;;;;5082609;28;19908;-79
2023/06/28 13:17:22;;;;;;;;;;;24.20;58.10;;;;;;5114866;28;19931;-80
2023/06/28 13:19:48;;;;;;;;;;;23.90;58.70;;;;;;5081479;28;20353;-81
2023/06/28 13:22:13;;;;;;;;;;;23.50;59.00;;;;;;5097289;28;19919;-81
2023/06/28 13:24:39;;;;;;;;;;;23.50;59.30;;;;;;5098526;28;19931;-82
2023/06/28 13:27:05;;;;;;;;;;;23.60;59.20;;;;;;5084272;28;20361;-81
2023/06/28 13:29:31;;;;;;;;;;;23.60;58.80;;;;;;5096642;28;19908;-81
2023/06/28 13:31:56;;;;;;;;;;;23.60;58.80;;;;;;5078384;28;19911;-80
2023/06/28 13:34:22;;;;;;;;;;;23.50;58.70;;;;;;5111885;28;19948;-79
2023/06/28 13:36:48;;;;;;;;;;;;;;;;;;5096928;28;19919;-82
2023/06/28 13:39:14;;;;;;;;;;;;;;;;;;5096321;28;19912;-80
2023/06/28 13:41:40;;;;;;;;;;;;;;;;;;5086803;28;19915;-80
2023/06/28 13:44:06;;;;;;;;;;;;;;;;;;5101461;28;20288;-81
2023/06/28 13:46:32;;;;;;;;;;;;;;;;;;5096515;28;19920;-80
2023/06/28 13:48:58;;;;;;;;;;;;;;;;;;5097163;28;19916;-79
2023/06/28 13:51:24;;;;;;;;;;;;;;;;;;5103694;28;19908;-82
2023/06/28 13:53:50;;;;;;;;;;;;;;;;;;5127882;27;20280;-80
2023/06/28 13:56:16;;;;;;;;;;;;;;;;;;5117279;27;19920;-79
2023/06/28 13:58:41;;;;;;;;;;;;;;;;;;5086992;28;19961;-80
2023/06/28 14:01:07;;;;;;;;;;;;;;;;;;5100109;28;20348;-81
2023/06/28 14:03:33;;;;;;;;;;;;;;;;;;5096174;28;20385;-79
2023/06/28 14:05:59;;;;;;;;;;;;;;;;;;5095876;28;20493;-81
2023/06/28 14:08:25;;;;;;;;;;;;;;;;;;5096035;28;20270;-80
2023/06/28 14:10:52;;;;;;;;;;;;;;;;;;5096971;28;20002;-79
2023/06/28 14:13:17;;;;;;;;;;;;;;;;;;5078445;28;20280;-81
2023/06/28 14:15:43;;;;;;;;;;;;;;;;;;5097376;27;19908;-80
2023/06/28 14:18:09;;;;;;;;;;;;;;;;;;5126111;27;19919;-79
2023/06/28 14:20:35;;;;;;;;;;;;;;;;;;5113549;28;19916;-80
2023/06/28 14:23:01;;;;;;;;;;;;;;;;;;5105422;28;19947;-80
2023/06/28 14:25:27;;;;;;;;;;;;;;;;;;5101261;28;19916;-81
2023/06/28 14:27:53;;;;;;;;;;;;;;;;;;5102456;28;19961;-81
2023/06/28 14:30:19;;;;;;;;;;;;;;;;;;5102585;28;20385;-80
2023/06/28 14:32:47;;;;;;;;;;;;;;;;;;5102258;28;20404;-81
2023/06/28 14:35:13;;;;;;;;;;;;;;;;;;5109877;28;19991;-80
2023/06/28 14:37:39;;;;;;;;;;;;;;;;;;5119204;28;19945;-81
2023/06/28 14:40:05;;;;;;;;;;;;;;;;;;5105969;28;19914;-81
2023/06/28 14:42:31;;;;;;;;;;;;;;;;;;5100200;28;20010;-82
2023/06/28 14:44:57;;;;;;;;;;;;;;;;;;5098826;28;19917;-80
2023/06/28 14:47:23;;;;;;;;;;;;;;;;;;5096312;28;19922;-80
2023/06/28 14:49:49;;;;;;;;;;;;;;;;;;5101361;27;19916;-80
2023/06/28 14:52:15;;;;;;;;;;;;;;;;;;5095127;28;19999;-81
2023/06/28 14:54:41;;;;;;;;;;;;;;;;;;5098883;28;20002;-81